Time;durP1;ratioP1;P1;durP2;ratioP2;P2;SDS_P1;SDS_P2;PMS_P1;PMS_P2;Temp;Humidity;BMP_temperature;BMP_pressure;BME280_temperature;BME280_humidity;BME280_pressure;Samples;Min_cycle;Max_cycle;Signal;HPM_P1;HPM_P2
2023/04/13 00:00:23;;;;;;;2.28;1.45;;;;;;;;;;5041683;28;20119;-70
2023/04/13 00:02:55;;;;;;;1.70;1.55;;;;;;;;;;5041162;28;20041;-70
2023/04/13 00:05:22;;;;;;;2.03;1.27;;;;;;;;;;5039737;28;20041;-70
2023/04/13 00:07:48;;;;;;;2.78;1.70;;;;;;;;;;5040142;28;20049;-70
2023/04/13 00:10:17;;;;;;;1.40;1.30;;;;;;;;;;5040656;28;20041;-70
2023/04/13 00:12:46;;;;;;;3.22;1.17;;;;;;;;;;5040627;28;20056;-69
2023/04/13 00:15:13;;;;;;;1.48;1.20;;;;;;;;;;5039999;28;20061;-70
2023/04/13 00:17:41;;;;;;;1.50;1.17;;;;;;;;;;5038060;28;20040;-70
2023/04/13 00:20:11;;;;;;;4.38;1.88;;;;;;;;;;5040464;28;20049;-69
2023/04/13 00:22:37;;;;;;;2.40;1.42;;;;;;;;;;5039726;28;20055;-70
2023/04/13 00:25:03;;;;;;;1.60;1.30;;;;;;;;;;5037538;28;20503;-70
2023/04/13 00:27:29;;;;;;;4.00;1.40;;;;;;;;;;5038255;28;20052;-70
2023/04/13 00:29:56;;;;;;;2.28;1.48;;;;;;;;;;5040732;28;20455;-70
2023/04/13 00:32:22;;;;;;;2.78;1.80;;;;;;;;;;5039525;28;20057;-69
2023/04/13 00:34:49;;;;;;;1.75;1.65;;;;;;;;;;5036799;28;20044;-70
2023/04/13 00:37:15;;;;;;;2.58;1.67;;;;;;;;;;5041628;28;20045;-70
2023/04/13 00:39:42;;;;;;;2.88;1.75;;;;;;;;;;5043226;28;20033;-70
2023/04/13 00:42:08;;;;;;;2.58;2.00;;;;;;;;;;5042670;28;20048;-70
2023/04/13 00:44:35;;;;;;;3.30;1.48;;;;;;;;;;5041161;28;20108;-69
2023/04/13 00:47:03;;;;;;;3.55;1.98;;;;;;;;;;5040945;28;20033;-70
2023/04/13 00:49:30;;;;;;;2.72;1.85;;;;;;;;;;5042135;28;20102;-70
2023/04/13 00:51:56;;;;;;;2.08;1.60;;;;;;;;;;5042320;28;20041;-69
2023/04/13 00:54:22;;;;;;;2.42;1.85;;;;;;;;;;5038291;28;20309;-69
2023/04/13 00:56:49;;;;;;;3.05;1.73;;;;;;;;;;5040470;28;20570;-69
2023/04/13 00:59:16;;;;;;;1.77;1.50;;;;;;;;;;5041150;28;20052;-69
2023/04/13 01:01:45;;;;;;;1.92;1.70;;;;;;;;;;5037758;28;20048;-70
2023/04/13 01:04:17;;;;;;;2.33;1.92;;;;;;;;;;5037540;28;20045;-69
2023/04/13 01:06:49;;;;;;;1.92;1.70;;;;;;;;;;5041710;28;20048;-69
2023/04/13 01:09:16;;;;;;;2.70;1.80;;;;;;;;;;5033034;28;20049;-70
2023/04/13 01:11:45;;;;;;;3.05;1.60;;;;;;;;;;5042714;28;20037;-69
2023/04/13 01:14:30;;;;;;;1.83;1.65;;;;;;;;;;5042168;28;20044;-69
2023/04/13 01:17:02;;;;;;;1.88;1.58;;;;;;;;;;5039684;28;20040;-70
2023/04/13 01:19:50;;;;;;;2.05;1.55;;;;;;;;;;5037009;28;20132;-69
2023/04/13 01:22:18;;;;;;;3.70;2.83;;;;;;;;;;5040020;28;20144;-69
2023/04/13 01:25:04;;;;;;;2.15;1.70;;;;;;;;;;5041818;28;20154;-69
2023/04/13 01:27:42;;;;;;;2.60;2.40;;;;;;;;;;5042844;28;20123;-69
2023/04/13 01:30:09;;;;;;;3.38;2.38;;;;;;;;;;5035461;28;20075;-69
2023/04/13 01:32:39;;;;;;;1.70;1.60;;;;;;;;;;5040874;28;20753;-69
2023/04/13 01:35:09;;;;;;;2.40;1.58;;;;;;;;;;5042848;28;20060;-69
2023/04/13 01:37:35;;;;;;;1.55;1.45;;;;;;;;;;5041626;28;20040;-69
2023/04/13 01:40:04;;;;;;;1.75;1.40;;;;;;;;;;5037703;28;20044;-69
2023/04/13 01:42:31;;;;;;;1.45;1.35;;;;;;;;;;5035238;28;20052;-69
2023/04/13 01:44:57;;;;;;;1.98;1.30;;;;;;;;;;5040369;28;20047;-69
2023/04/13 01:47:24;;;;;;;1.65;1.17;;;;;;;;;;5041806;28;20052;-69
2023/04/13 01:49:57;;;;;;;5.25;1.85;;;;;;;;;;5040653;28;20049;-69
2023/04/13 01:52:23;;;;;;;;;;;;;;;;;;5039072;28;20056;-69
2023/04/13 01:54:49;;;;;;;2.28;1.80;;;;;;;;;;5036142;28;19924;-70
2023/04/13 01:57:16;;;;;;;1.30;1.20;;;;;;;;;;5038113;28;20038;-69
2023/04/13 01:59:43;;;;;;;2.72;1.45;;;;;;;;;;5039414;28;20045;-69
2023/04/13 02:02:15;;;;;;;2.20;1.75;;;;;;;;;;5037391;28;20067;-69
2023/04/13 02:04:41;;;;;;;5.03;2.15;;;;;;;;;;5039103;28;20053;-69
2023/04/13 02:07:07;;;;;;;3.05;1.50;;;;;;;;;;5041669;28;20403;-69
2023/04/13 02:09:34;;;;;;;4.05;2.38;;;;;;;;;;5034064;28;20049;-70
2023/04/13 02:12:00;;;;;;;2.30;1.80;;;;;;;;;;5032194;28;20044;-69
2023/04/13 02:14:26;;;;;;;3.22;1.88;;;;;;;;;;5040385;28;20047;-69
2023/04/13 02:16:52;;;;;;;3.17;1.80;;;;;;;;;;5039511;28;20040;-69
2023/04/13 02:19:19;;;;;;;4.38;1.80;;;;;;;;;;5039889;28;20086;-70
2023/04/13 02:21:45;;;;;;;3.72;1.70;;;;;;;;;;5042688;28;20045;-69
2023/04/13 02:24:11;;;;;;;2.63;2.17;;;;;;;;;;5039524;28;20124;-69
2023/04/13 02:26:37;;;;;;;3.92;1.80;;;;;;;;;;5036116;28;20073;-69
2023/04/13 02:29:04;;;;;;;2.17;1.80;;;;;;;;;;5040818;28;20100;-69
2023/04/13 02:31:31;;;;;;;3.38;1.45;;;;;;;;;;5040424;28;20562;-70
2023/04/13 02:33:57;;;;;;;2.25;1.55;;;;;;;;;;5043621;28;20119;-69
2023/04/13 02:36:26;;;;;;;2.22;1.80;;;;;;;;;;5044830;28;20051;-69
2023/04/13 02:38:53;;;;;;;3.33;1.45;;;;;;;;;;5039798;28;20045;-69
2023/04/13 02:41:21;;;;;;;2.95;2.00;;;;;;;;;;5039758;28;20053;-70
2023/04/13 02:43:49;;;;;;;1.23;1.13;;;;;;;;;;5041180;28;20060;-70
2023/04/13 02:46:15;;;;;;;1.25;1.10;;;;;;;;;;5045019;28;20495;-69
2023/04/13 02:48:41;;;;;;;1.75;1.42;;;;;;;;;;5036575;28;20115;-69
2023/04/13 02:51:07;;;;;;;3.33;1.90;;;;;;;;;;5045616;28;20048;-69
2023/04/13 02:53:33;;;;;;;1.35;1.15;;;;;;;;;;5044278;28;20151;-69
2023/04/13 02:55:59;;;;;;;1.40;1.02;;;;;;;;;;5044597;28;20048;-69
2023/04/13 02:58:25;;;;;;;2.38;1.25;;;;;;;;;;5039274;28;20052;-69
2023/04/13 03:00:51;;;;;;;2.40;1.17;;;;;;;;;;5044982;28;20052;-69
2023/04/13 03:03:19;;;;;;;1.50;1.08;;;;;;;;;;5041859;28;20552;-69
2023/04/13 03:05:45;;;;;;;1.77;0.80;;;;;;;;;;5045921;28;20055;-69
2023/04/13 03:08:11;;;;;;;2.00;1.42;;;;;;;;;;5041598;28;20048;-70
2023/04/13 03:10:37;;;;;;;1.45;1.10;;;;;;;;;;5040619;28;20079;-69
2023/04/13 03:13:03;;;;;;;1.38;0.90;;;;;;;;;;5038345;28;20479;-69
2023/04/13 03:15:29;;;;;;;1.35;0.93;;;;;;;;;;5042165;28;20126;-69
2023/04/13 03:17:58;;;;;;;0.75;0.75;;;;;;;;;;5037072;28;20056;-69
2023/04/13 03:20:24;;;;;;;1.13;1.02;;;;;;;;;;5040134;28;20053;-70
2023/04/13 03:22:52;;;;;;;2.03;0.80;;;;;;;;;;5040322;28;20124;-69
2023/04/13 03:25:18;;;;;;;1.25;1.02;;;;;;;;;;5038427;28;20049;-69
2023/04/13 03:27:44;;;;;;;0.80;0.80;;;;;;;;;;5039212;28;20040;-69
2023/04/13 03:30:11;;;;;;;1.75;0.95;;;;;;;;;;5039696;28;20388;-69
2023/04/13 03:32:37;;;;;;;1.55;0.77;;;;;;;;;;5041006;28;20061;-70
2023/04/13 03:35:03;;;;;;;1.10;0.82;;;;;;;;;;5039705;28;20053;-69
2023/04/13 03:37:31;;;;;;;0.95;0.63;;;;;;;;;;5035916;28;20052;-69
2023/04/13 03:40:00;;;;;;;1.40;0.93;;;;;;;;;;5040566;28;20048;-69
2023/04/13 03:42:26;;;;;;;1.73;0.90;;;;;;;;;;5035901;28;20737;-69
2023/04/13 03:44:52;;;;;;;1.00;0.90;;;;;;;;;;5037419;28;20049;-69
2023/04/13 03:47:18;;;;;;;0.80;0.60;;;;;;;;;;5038576;28;20037;-69
2023/04/13 03:49:44;;;;;;;3.22;1.35;;;;;;;;;;5042338;28;20045;-69
2023/04/13 03:52:10;;;;;;;2.42;0.93;;;;;;;;;;5038231;28;21627;-69
2023/04/13 03:54:36;;;;;;;2.70;0.77;;;;;;;;;;5040315;28;20444;-69
2023/04/13 03:57:03;;;;;;;1.42;0.93;;;;;;;;;;5040705;28;20045;-69
2023/04/13 03:59:29;;;;;;;1.00;0.65;;;;;;;;;;5037524;28;20434;-69
2023/04/13 04:01:55;;;;;;;1.40;1.08;;;;;;;;;;5042439;28;20045;-69
2023/04/13 04:04:21;;;;;;;0.77;0.77;;;;;;;;;;5037064;28;20393;-69
2023/04/13 04:06:47;;;;;;;1.27;1.08;;;;;;;;;;5036390;28;20431;-69
2023/04/13 04:09:13;;;;;;;0.95;0.70;;;;;;;;;;5040760;28;20162;-70
2023/04/13 04:11:39;;;;;;;2.20;1.00;;;;;;;;;;5034003;28;20103;-70
2023/04/13 04:14:05;;;;;;;2.47;1.17;;;;;;;;;;5035073;28;20049;-70
2023/04/13 04:16:31;;;;;;;0.88;0.60;;;;;;;;;;5038673;28;20059;-69
2023/04/13 04:18:57;;;;;;;0.75;0.70;;;;;;;;;;5037830;28;20396;-69
2023/04/13 04:21:32;;;;;;;0.60;0.60;;;;;;;;;;5035260;28;20064;-69
2023/04/13 04:23:59;;;;;;;2.33;1.02;;;;;;;;;;5034059;28;20659;-69
2023/04/13 04:26:25;;;;;;;0.70;0.68;;;;;;;;;;5037949;28;20503;-70
2023/04/13 04:28:51;;;;;;;1.52;0.90;;;;;;;;;;5037796;28;20507;-70
2023/04/13 04:31:17;;;;;;;0.80;0.80;;;;;;;;;;5037805;28;20527;-69
2023/04/13 04:33:43;;;;;;;0.80;0.80;;;;;;;;;;5038625;28;20055;-69
2023/04/13 04:36:12;;;;;;;0.82;0.77;;;;;;;;;;5036045;28;20880;-69
2023/04/13 04:38:39;;;;;;;1.00;0.65;;;;;;;;;;5038533;28;20041;-69
2023/04/13 04:41:07;;;;;;;0.80;0.75;;;;;;;;;;5038527;28;20146;-69
2023/04/13 04:43:34;;;;;;;0.60;0.60;;;;;;;;;;5034875;28;20051;-69
2023/04/13 04:46:03;;;;;;;1.52;1.23;;;;;;;;;;5038160;28;20041;-69
2023/04/13 04:48:30;;;;;;;0.70;0.70;;;;;;;;;;5038406;28;20052;-69
2023/04/13 04:50:56;;;;;;;0.85;0.70;;;;;;;;;;5037572;28;20048;-69
2023/04/13 04:53:23;;;;;;;0.88;0.73;;;;;;;;;;5035748;28;20434;-70
2023/04/13 04:55:50;;;;;;;0.70;0.60;;;;;;;;;;5036767;28;20068;-69
2023/04/13 04:58:17;;;;;;;0.80;0.80;;;;;;;;;;5030841;28;20049;-69
2023/04/13 05:00:43;;;;;;;1.42;0.90;;;;;;;;;;5033359;28;20132;-69
2023/04/13 05:03:09;;;;;;;0.82;0.73;;;;;;;;;;5034641;28;20144;-69
2023/04/13 05:05:35;;;;;;;1.23;0.60;;;;;;;;;;5036875;28;20574;-69
2023/04/13 05:08:01;;;;;;;1.10;0.50;;;;;;;;;;5036402;28;20080;-69
2023/04/13 05:10:28;;;;;;;2.72;0.68;;;;;;;;;;5034634;28;20062;-69
2023/04/13 05:12:55;;;;;;;0.77;0.68;;;;;;;;;;5035510;28;20454;-69
2023/04/13 05:15:21;;;;;;;1.23;0.90;;;;;;;;;;5035441;28;20041;-69
2023/04/13 05:17:49;;;;;;;1.02;0.93;;;;;;;;;;5034994;28;20041;-70
2023/04/13 05:20:16;;;;;;;0.80;0.80;;;;;;;;;;5033055;28;20119;-69
2023/04/13 05:22:42;;;;;;;1.40;1.30;;;;;;;;;;5036958;28;20040;-69
2023/04/13 05:25:08;;;;;;;1.05;0.95;;;;;;;;;;5035862;28;20049;-69
2023/04/13 05:27:34;;;;;;;2.38;1.58;;;;;;;;;;5034084;28;20493;-69
2023/04/13 05:30:00;;;;;;;1.90;1.80;;;;;;;;;;5034551;28;20047;-69
2023/04/13 05:32:26;;;;;;;2.15;1.73;;;;;;;;;;5032771;28;20065;-69
2023/04/13 05:34:52;;;;;;;3.63;2.17;;;;;;;;;;5037068;28;20053;-72
2023/04/13 05:37:19;;;;;;;2.00;1.90;;;;;;;;;;5034415;28;20064;-69
2023/04/13 05:39:45;;;;;;;2.30;2.10;;;;;;;;;;5032075;28;20063;-69
2023/04/13 05:42:11;;;;;;;2.30;2.10;;;;;;;;;;5038639;28;20045;-69
2023/04/13 05:44:37;;;;;;;4.93;2.17;;;;;;;;;;5039141;28;20045;-69
2023/04/13 05:47:03;;;;;;;2.28;2.10;;;;;;;;;;5038234;28;20550;-69
2023/04/13 05:49:29;;;;;;;2.47;1.90;;;;;;;;;;5037869;28;20049;-70
2023/04/13 05:51:55;;;;;;;2.33;1.83;;;;;;;;;;5039042;28;20160;-69
2023/04/13 05:54:21;;;;;;;2.40;2.17;;;;;;;;;;5037228;28;20045;-69
2023/04/13 05:56:47;;;;;;;2.70;1.95;;;;;;;;;;5038241;28;20044;-70
2023/04/13 05:59:14;;;;;;;4.22;2.00;;;;;;;;;;5032905;28;20057;-69
2023/04/13 06:01:40;;;;;;;3.08;1.92;;;;;;;;;;5034708;28;20053;-70
2023/04/13 06:04:08;;;;;;;1.92;1.65;;;;;;;;;;5036333;28;20235;-70
2023/04/13 06:06:34;;;;;;;2.72;2.00;;;;;;;;;;5036467;28;20110;-70
2023/04/13 06:09:01;;;;;;;3.92;2.08;;;;;;;;;;5033201;28;20061;-70
2023/04/13 06:11:27;;;;;;;2.03;1.70;;;;;;;;;;5035774;28;20041;-70
2023/04/13 06:13:53;;;;;;;2.70;1.63;;;;;;;;;;5036827;28;20398;-69
2023/04/13 06:16:22;;;;;;;3.00;1.55;;;;;;;;;;5034295;28;20579;-70
2023/04/13 06:18:47;;;;;;;3.25;1.42;;;;;;;;;;5037723;28;20045;-70
2023/04/13 06:21:14;;;;;;;2.63;1.27;;;;;;;;;;5040446;28;20099;-69
2023/04/13 06:23:40;;;;;;;1.65;1.42;;;;;;;;;;5034209;28;20049;-69
2023/04/13 06:26:06;;;;;;;4.57;1.83;;;;;;;;;;5033522;28;20586;-69
2023/04/13 06:28:33;;;;;;;3.55;1.85;;;;;;;;;;5034509;28;20063;-70
2023/04/13 06:30:59;;;;;;;3.75;1.60;;;;;;;;;;5041442;28;20049;-69
2023/04/13 06:33:25;;;;;;;4.18;1.60;;;;;;;;;;5036453;28;20061;-69
2023/04/13 06:35:51;;;;;;;2.58;1.45;;;;;;;;;;5038808;28;20045;-70
2023/04/13 06:38:18;;;;;;;2.85;1.67;;;;;;;;;;5038455;28;20045;-70
2023/04/13 06:40:44;;;;;;;1.73;1.60;;;;;;;;;;5037011;28;20055;-70
2023/04/13 06:43:10;;;;;;;1.55;1.13;;;;;;;;;;5038854;28;20075;-69
2023/04/13 06:45:36;;;;;;;3.30;1.48;;;;;;;;;;5037159;28;20321;-70
2023/04/13 06:48:02;;;;;;;2.10;1.75;;;;;;;;;;5035806;28;20091;-70
2023/04/13 06:50:28;;;;;;;1.58;1.17;;;;;;;;;;5028091;28;20085;-70
2023/04/13 06:52:54;;;;;;;1.88;1.30;;;;;;;;;;5036265;28;20040;-70
2023/04/13 06:55:20;;;;;;;5.18;1.83;;;;;;;;;;5037067;28;20042;-70
2023/04/13 06:57:46;;;;;;;2.45;1.23;;;;;;;;;;5036832;28;20116;-70
2023/04/13 07:00:13;;;;;;;4.47;1.50;;;;;;;;;;5040442;28;20048;-70
2023/04/13 07:02:40;;;;;;;3.90;2.00;;;;;;;;;;5037048;28;20071;-69
2023/04/13 07:05:07;;;;;;;4.00;1.67;;;;;;;;;;5035128;28;20084;-69
2023/04/13 07:07:33;;;;;;;4.82;1.90;;;;;;;;;;5035486;28;20053;-69
2023/04/13 07:09:59;;;;;;;5.82;2.60;;;;;;;;;;5038021;28;20056;-70
2023/04/13 07:12:25;;;;;;;2.70;1.98;;;;;;;;;;5037720;28;20045;-70
2023/04/13 07:14:51;;;;;;;7.45;2.13;;;;;;;;;;5035546;28;20515;-70
2023/04/13 07:17:17;;;;;;;7.63;2.15;;;;;;;;;;5035167;28;20052;-70
2023/04/13 07:19:48;;;;;;;2.95;2.28;;;;;;;;;;5038748;28;20132;-70
2023/04/13 07:22:15;;;;;;;5.43;1.98;;;;;;;;;;5038536;28;20394;-70
2023/04/13 07:24:41;;;;;;;5.13;2.03;;;;;;;;;;5033903;28;20685;-70
2023/04/13 07:27:07;;;;;;;5.55;1.90;;;;;;;;;;5035173;28;20049;-70
2023/04/13 07:29:34;;;;;;;3.53;2.03;;;;;;;;;;5035693;28;20136;-70
2023/04/13 07:32:01;;;;;;;3.33;1.98;;;;;;;;;;5037198;28;20050;-70
2023/04/13 07:34:27;;;;;;;4.18;2.00;;;;;;;;;;5035134;28;20093;-70
2023/04/13 07:36:53;;;;;;;2.08;1.88;;;;;;;;;;5035843;28;20055;-71
2023/04/13 07:39:19;;;;;;;2.95;2.15;;;;;;;;;;5037663;28;20072;-70
2023/04/13 07:41:47;;;;;;;2.83;1.42;;;;;;;;;;5038316;28;20135;-71
2023/04/13 07:44:16;;;;;;;2.45;2.00;;;;;;;;;;5036899;28;20045;-69
2023/04/13 07:46:42;;;;;;;4.25;1.95;;;;;;;;;;5034308;28;20049;-63
2023/04/13 07:49:08;;;;;;;2.70;1.48;;;;;;;;;;5031277;28;20059;-62
2023/04/13 07:51:34;;;;;;;3.40;1.88;;;;;;;;;;5044250;28;20056;-63
2023/04/13 07:54:01;;;;;;;6.85;1.80;;;;;;;;;;5046212;28;20605;-66
2023/04/13 07:56:27;;;;;;;4.28;1.52;;;;;;;;;;5045212;28;20053;-66
2023/04/13 07:58:53;;;;;;;2.47;1.63;;;;;;;;;;5045732;28;20052;-66
2023/04/13 08:01:20;;;;;;;3.47;1.52;;;;;;;;;;5044968;28;20055;-65
2023/04/13 08:03:47;;;;;;;3.38;1.90;;;;;;;;;;5037662;28;20513;-66
2023/04/13 08:06:13;;;;;;;5.57;1.98;;;;;;;;;;5045564;28;20056;-65
2023/04/13 08:08:39;;;;;;;5.25;1.98;;;;;;;;;;5043082;28;20238;-66
2023/04/13 08:11:06;;;;;;;8.02;2.22;;;;;;;;;;5040581;28;20075;-67
2023/04/13 08:13:32;;;;;;;4.32;1.90;;;;;;;;;;5042636;28;20041;-67
2023/04/13 08:15:59;;;;;;;6.35;1.48;;;;;;;;;;5042790;28;20131;-68
2023/04/13 08:18:30;;;;;;;3.92;1.40;;;;;;;;;;5041160;28;20438;-67
2023/04/13 08:20:57;;;;;;;5.55;1.50;;;;;;;;;;5040858;28;20079;-66
2023/04/13 08:23:23;;;;;;;4.72;2.03;;;;;;;;;;5044455;28;20061;-68
2023/04/13 08:25:49;;;;;;;1.92;1.10;;;;;;;;;;5037597;28;20452;-67
2023/04/13 08:28:15;;;;;;;4.85;1.40;;;;;;;;;;5039467;28;20049;-66
2023/04/13 08:30:41;;;;;;;2.80;1.23;;;;;;;;;;5033723;28;20055;-66
2023/04/13 08:33:07;;;;;;;3.35;0.93;;;;;;;;;;5037093;28;20052;-66
2023/04/13 08:35:37;;;;;;;5.70;1.10;;;;;;;;;;5038916;28;20049;-67
2023/04/13 08:38:04;;;;;;;2.83;1.23;;;;;;;;;;5037007;28;20045;-67
2023/04/13 08:40:30;;;;;;;2.53;1.27;;;;;;;;;;5036032;28;20041;-67
2023/04/13 08:42:56;;;;;;;3.63;1.15;;;;;;;;;;5036964;28;20079;-67
2023/04/13 08:45:23;;;;;;;3.15;1.08;;;;;;;;;;5037706;28;20068;-66
2023/04/13 08:47:49;;;;;;;3.88;1.60;;;;;;;;;;5039625;28;20473;-67
2023/04/13 08:50:15;;;;;;;4.82;1.45;;;;;;;;;;5041748;28;20044;-67
2023/04/13 08:52:41;;;;;;;2.97;1.33;;;;;;;;;;5044887;28;21643;-67
2023/04/13 08:55:08;;;;;;;2.85;1.00;;;;;;;;;;5043796;28;20076;-67
2023/04/13 08:57:34;;;;;;;2.83;0.88;;;;;;;;;;5044314;28;20052;-69
2023/04/13 09:00:00;;;;;;;1.65;0.82;;;;;;;;;;5042586;28;20067;-67
2023/04/13 09:02:31;;;;;;;1.70;0.60;;;;;;;;;;5042653;28;20041;-68
2023/04/13 09:04:59;;;;;;;1.25;0.60;;;;;;;;;;5042782;28;20059;-66
2023/04/13 09:07:29;;;;;;;0.93;0.50;;;;;;;;;;5040074;28;20179;-65
2023/04/13 09:09:59;;;;;;;1.63;0.52;;;;;;;;;;5037999;28;20049;-67
2023/04/13 09:12:29;;;;;;;2.28;0.60;;;;;;;;;;5044777;28;20044;-67
2023/04/13 09:14:56;;;;;;;2.03;0.60;;;;;;;;;;5042446;28;20067;-67
2023/04/13 09:17:24;;;;;;;1.83;0.63;;;;;;;;;;5045675;28;20049;-67
2023/04/13 09:19:51;;;;;;;2.78;0.80;;;;;;;;;;5045671;28;20044;-67
2023/04/13 09:22:17;;;;;;;2.58;0.80;;;;;;;;;;5042994;28;20063;-67
2023/04/13 09:24:43;;;;;;;1.20;0.30;;;;;;;;;;5044436;28;20044;-67
2023/04/13 09:27:22;;;;;;;2.40;0.85;;;;;;;;;;5043928;28;20754;-67
2023/04/13 09:29:51;;;;;;;0.55;0.20;;;;;;;;;;5043161;28;20099;-67
2023/04/13 09:32:21;;;;;;;0.68;0.25;;;;;;;;;;5043813;28;20140;-67
2023/04/13 09:34:56;;;;;;;1.65;0.40;;;;;;;;;;5042544;28;20070;-67
2023/04/13 09:37:22;;;;;;;1.33;0.70;;;;;;;;;;5043656;28;20500;-67
2023/04/13 09:39:49;;;;;;;2.20;0.60;;;;;;;;;;5045069;28;20071;-67
2023/04/13 09:42:17;;;;;;;1.42;0.60;;;;;;;;;;5044356;28;20060;-67
2023/04/13 09:44:44;;;;;;;1.33;0.40;;;;;;;;;;5045752;28;20071;-66
2023/04/13 09:47:11;;;;;;;2.28;0.70;;;;;;;;;;5044923;28;20033;-66
2023/04/13 09:49:41;;;;;;;1.38;0.40;;;;;;;;;;5044358;28;20088;-67
2023/04/13 09:52:21;;;;;;;1.40;0.35;;;;;;;;;;5043600;28;20065;-66
2023/04/13 09:54:51;;;;;;;1.48;0.47;;;;;;;;;;5044786;28;20067;-67
2023/04/13 09:57:27;;;;;;;0.75;0.32;;;;;;;;;;5044686;28;20052;-67
2023/04/13 09:59:53;;;;;;;0.55;0.10;;;;;;;;;;5043491;28;20084;-67
2023/04/13 10:02:19;;;;;;;0.35;0.17;;;;;;;;;;5044909;28;20055;-67
2023/04/13 10:04:45;;;;;;;0.20;0.10;;;;;;;;;;5044810;28;20057;-67
2023/04/13 10:07:12;;;;;;;0.20;0.20;;;;;;;;;;5042466;28;20045;-67
2023/04/13 10:09:38;;;;;;;0.40;0.10;;;;;;;;;;5044671;28;20095;-64
2023/04/13 10:12:06;;;;;;;0.20;0.10;;;;;;;;;;5041448;28;20040;-62
2023/04/13 10:14:34;;;;;;;0.43;0.22;;;;;;;;;;5043666;28;20056;-68
2023/04/13 10:17:14;;;;;;;1.17;0.30;;;;;;;;;;5043508;28;20051;-67
2023/04/13 10:19:46;;;;;;;1.70;0.30;;;;;;;;;;5043583;28;20112;-68
2023/04/13 10:22:12;;;;;;;0.30;0.20;;;;;;;;;;5040493;28;20053;-68
2023/04/13 10:24:38;;;;;;;0.30;0.30;;;;;;;;;;5036765;28;20409;-68
2023/04/13 10:27:13;;;;;;;0.68;0.22;;;;;;;;;;5040617;28;20597;-68
2023/04/13 10:29:39;;;;;;;0.32;0.32;;;;;;;;;;5040379;28;20128;-68
2023/04/13 10:32:06;;;;;;;1.77;0.45;;;;;;;;;;5036568;28;20061;-67
2023/04/13 10:34:37;;;;;;;0.73;0.50;;;;;;;;;;5043541;28;20052;-68
2023/04/13 10:37:05;;;;;;;1.23;0.52;;;;;;;;;;5036185;28;20060;-68
2023/04/13 10:39:32;;;;;;;3.30;0.73;;;;;;;;;;5042926;28;20534;-65
2023/04/13 10:42:08;;;;;;;2.80;0.77;;;;;;;;;;5040751;28;20041;-67
2023/04/13 10:44:40;;;;;;;3.38;1.13;;;;;;;;;;5038501;28;20124;-67
2023/04/13 10:47:07;;;;;;;;;;;;;;;;;;5031237;28;20053;-66
2023/04/13 10:49:33;;;;;;;2.53;0.90;;;;;;;;;;5023675;28;19925;-66
2023/04/13 10:51:59;;;;;;;1.20;0.70;;;;;;;;;;5023559;28;20046;-66
2023/04/13 10:54:29;;;;;;;2.60;0.80;;;;;;;;;;5025636;28;20053;-66
2023/04/13 10:56:58;;;;;;;2.42;0.82;;;;;;;;;;5028621;28;20065;-66
2023/04/13 10:59:36;;;;;;;1.35;0.50;;;;;;;;;;5028534;28;20060;-66
2023/04/13 11:02:05;;;;;;;2.35;0.80;;;;;;;;;;5028148;28;20037;-65
2023/04/13 11:04:31;;;;;;;3.63;0.82;;;;;;;;;;5028052;28;20042;-65
2023/04/13 11:06:58;;;;;;;4.13;0.82;;;;;;;;;;5027360;28;20045;-66
2023/04/13 11:09:23;;;;;;;1.45;0.65;;;;;;;;;;5027652;28;20049;-66
2023/04/13 11:11:52;;;;;;;1.15;0.52;;;;;;;;;;5026372;28;20164;-65
2023/04/13 11:14:21;;;;;;;0.55;0.25;;;;;;;;;;5026741;28;20124;-66
2023/04/13 11:16:48;;;;;;;3.08;0.90;;;;;;;;;;5026391;28;20123;-66
2023/04/13 11:19:14;;;;;;;2.75;0.73;;;;;;;;;;5027351;28;20049;-65
2023/04/13 11:21:43;;;;;;;4.90;0.95;;;;;;;;;;5025879;28;20045;-65
2023/04/13 11:24:09;;;;;;;7.20;2.40;;;;;;;;;;5026420;28;20065;-66
2023/04/13 11:26:37;;;;;;;7.07;1.83;;;;;;;;;;5027953;28;20107;-65
2023/04/13 11:29:04;;;;;;;7.28;2.00;;;;;;;;;;5027134;28;20092;-65
2023/04/13 11:31:40;;;;;;;8.32;1.98;;;;;;;;;;5026126;28;20053;-65
2023/04/13 11:34:15;;;;;;;3.60;1.63;;;;;;;;;;5027398;28;20579;-65
2023/04/13 11:36:47;;;;;;;8.25;1.63;;;;;;;;;;5027521;28;20080;-65
2023/04/13 11:39:13;;;;;;;9.82;2.22;;;;;;;;;;5028444;28;20053;-65
2023/04/13 11:41:40;;;;;;;6.47;2.05;;;;;;;;;;5026341;28;20107;-65
2023/04/13 11:44:06;;;;;;;7.63;1.88;;;;;;;;;;5026832;28;20400;-65
2023/04/13 11:46:32;;;;;;;5.70;1.52;;;;;;;;;;5041286;28;20036;-64
2023/04/13 11:48:59;;;;;;;5.40;1.10;;;;;;;;;;5045003;28;20081;-67
2023/04/13 11:51:25;;;;;;;4.20;0.85;;;;;;;;;;5046952;28;20488;-70
2023/04/13 11:53:51;;;;;;;3.08;1.13;;;;;;;;;;5039396;28;20596;-70
2023/04/13 11:56:18;;;;;;;1.55;0.95;;;;;;;;;;5034868;28;20117;-70
2023/04/13 11:58:44;;;;;;;10.88;1.30;;;;;;;;;;5033462;28;20090;-70
2023/04/13 12:01:13;;;;;;;5.72;1.50;;;;;;;;;;5042900;28;20044;-70
2023/04/13 12:03:39;;;;;;;5.47;1.40;;;;;;;;;;5037327;28;20049;-70
2023/04/13 12:06:06;;;;;;;5.93;1.40;;;;;;;;;;5044437;28;20051;-70
2023/04/13 12:08:32;;;;;;;5.88;1.67;;;;;;;;;;5042330;28;20387;-70
2023/04/13 12:11:03;;;;;;;5.88;2.13;;;;;;;;;;5042221;28;20060;-70
2023/04/13 12:13:40;;;;;;;5.28;1.92;;;;;;;;;;5042560;28;20052;-70
2023/04/13 12:16:06;;;;;;;9.48;2.17;;;;;;;;;;5038519;28;20454;-70
2023/04/13 12:18:38;;;;;;;11.52;1.98;;;;;;;;;;5033970;28;20057;-70
2023/04/13 12:21:04;;;;;;;9.20;2.15;;;;;;;;;;5040916;28;20052;-70
2023/04/13 12:23:30;;;;;;;7.60;1.77;;;;;;;;;;5032989;28;20053;-70
2023/04/13 12:26:01;;;;;;;7.50;1.90;;;;;;;;;;5034818;28;20041;-70
2023/04/13 12:28:37;;;;;;;6.25;1.92;;;;;;;;;;5044847;28;20291;-70
2023/04/13 12:31:08;;;;;;;7.45;1.98;;;;;;;;;;5033297;28;20057;-70
2023/04/13 12:33:35;;;;;;;5.78;2.03;;;;;;;;;;5032715;28;20057;-70
2023/04/13 12:36:01;;;;;;;5.00;1.58;;;;;;;;;;5040741;28;20037;-70
2023/04/13 12:38:27;;;;;;;6.82;1.60;;;;;;;;;;5041775;28;20368;-70
2023/04/13 12:40:56;;;;;;;13.05;2.22;;;;;;;;;;5037385;28;20128;-70
2023/04/13 12:43:23;;;;;;;4.85;1.52;;;;;;;;;;5040398;28;20091;-70
2023/04/13 12:45:49;;;;;;;10.52;2.33;;;;;;;;;;5042449;28;20045;-70
2023/04/13 12:48:15;;;;;;;6.45;2.35;;;;;;;;;;5038670;28;20118;-70
2023/04/13 12:50:41;;;;;;;8.65;2.13;;;;;;;;;;5029686;28;20399;-69
2023/04/13 12:53:07;;;;;;;6.82;2.10;;;;;;;;;;5043678;28;20083;-70
2023/04/13 12:55:33;;;;;;;8.00;2.00;;;;;;;;;;5045217;28;20091;-70
2023/04/13 12:58:00;;;;;;;11.18;2.58;;;;;;;;;;5041831;28;20077;-70
2023/04/13 13:00:26;;;;;;;11.60;2.42;;;;;;;;;;5042264;28;20087;-71
2023/04/13 13:02:52;;;;;;;11.75;2.63;;;;;;;;;;5040693;28;20483;-70
2023/04/13 13:05:18;;;;;;;5.82;1.67;;;;;;;;;;5043060;28;20045;-71
2023/04/13 13:07:44;;;;;;;7.45;1.45;;;;;;;;;;5043105;28;20402;-71
2023/04/13 13:10:10;;;;;;;8.90;2.53;;;;;;;;;;5042651;28;20507;-71
2023/04/13 13:12:36;;;;;;;8.35;1.88;;;;;;;;;;5038005;28;20049;-70
2023/04/13 13:15:04;;;;;;;8.82;1.90;;;;;;;;;;5033130;28;20044;-70
2023/04/13 13:17:30;;;;;;;8.60;2.15;;;;;;;;;;5044226;28;20400;-70
2023/04/13 13:19:56;;;;;;;8.88;2.13;;;;;;;;;;5031211;28;20103;-70
2023/04/13 13:22:23;;;;;;;5.53;1.63;;;;;;;;;;5042088;28;20053;-69
2023/04/13 13:24:49;;;;;;;6.78;1.67;;;;;;;;;;5037821;28;20187;-70
2023/04/13 13:27:15;;;;;;;7.40;2.42;;;;;;;;;;5036597;28;20044;-69
2023/04/13 13:29:41;;;;;;;5.55;1.73;;;;;;;;;;5038058;28;20072;-69
2023/04/13 13:32:08;;;;;;;10.68;2.15;;;;;;;;;;5033755;28;20135;-70
2023/04/13 13:34:34;;;;;;;8.02;1.90;;;;;;;;;;5035980;28;20057;-70
2023/04/13 13:37:00;;;;;;;6.57;1.90;;;;;;;;;;5033812;28;20095;-70
2023/04/13 13:39:26;;;;;;;10.55;1.95;;;;;;;;;;5037903;28;20136;-70
2023/04/13 13:41:52;;;;;;;8.55;1.80;;;;;;;;;;5034926;28;21925;-69
2023/04/13 13:44:18;;;;;;;6.95;1.80;;;;;;;;;;5038845;28;20131;-71
2023/04/13 13:46:45;;;;;;;7.47;1.65;;;;;;;;;;5032136;28;20124;-69
2023/04/13 13:49:11;;;;;;;5.15;1.38;;;;;;;;;;5035919;28;20139;-69
2023/04/13 13:51:37;;;;;;;6.55;1.95;;;;;;;;;;5035952;28;20243;-69
2023/04/13 13:54:03;;;;;;;8.68;2.55;;;;;;;;;;5032317;28;20063;-69
2023/04/13 13:56:29;;;;;;;7.47;2.53;;;;;;;;;;5040587;28;20634;-69
2023/04/13 13:58:55;;;;;;;8.32;1.92;;;;;;;;;;5032400;28;20503;-70
2023/04/13 14:01:21;;;;;;;9.32;2.03;;;;;;;;;;5033288;28;20186;-69
2023/04/13 14:03:47;;;;;;;8.77;3.20;;;;;;;;;;5035804;28;20570;-70
2023/04/13 14:06:13;;;;;;;4.82;1.30;;;;;;;;;;5035521;28;20042;-70
2023/04/13 14:08:39;;;;;;;6.10;1.50;;;;;;;;;;5038245;28;20147;-69
2023/04/13 14:11:05;;;;;;;10.10;1.75;;;;;;;;;;5034670;28;20044;-69
2023/04/13 14:13:31;;;;;;;4.93;1.52;;;;;;;;;;5041636;28;20056;-69
2023/04/13 14:15:57;;;;;;;5.50;2.17;;;;;;;;;;5041715;28;20152;-69
2023/04/13 14:18:23;;;;;;;4.88;1.83;;;;;;;;;;5037884;28;20391;-69
2023/04/13 14:20:52;;;;;;;7.82;1.70;;;;;;;;;;5039128;28;20131;-70
2023/04/13 14:23:18;;;;;;;6.03;2.08;;;;;;;;;;5033893;28;20506;-71
2023/04/13 14:25:44;;;;;;;6.68;1.60;;;;;;;;;;5038411;28;20044;-71
2023/04/13 14:28:10;;;;;;;7.68;2.00;;;;;;;;;;5038617;28;20045;-71
2023/04/13 14:30:38;;;;;;;6.97;1.77;;;;;;;;;;5039402;28;20144;-70
2023/04/13 14:33:05;;;;;;;7.95;2.28;;;;;;;;;;5043668;28;20059;-71
2023/04/13 14:35:31;;;;;;;8.00;1.67;;;;;;;;;;5048912;28;20396;-71
2023/04/13 14:37:57;;;;;;;6.10;1.45;;;;;;;;;;5043681;28;20407;-70
2023/04/13 14:40:23;;;;;;;8.13;2.20;;;;;;;;;;5039254;28;20052;-71
2023/04/13 14:42:51;;;;;;;7.88;2.38;;;;;;;;;;5044550;28;20118;-70